Flight Track Log - Related Links

Times and Time Zones

All times are in EDT time to prevent confusion due to time zone crossing. See the SKW5528 flight status page for this flight to view local times or setup timezone preferences in your user account.

Time Position Orientation Groundspeed Altitude Reporting Facility
EDT Latitude Longitude Course Direction KTS MPH feet Rate Location/Type
Thu 09:58:15 PM 39.8355 -104.6594 288° West  Level FlightAware Approximate
Thu 09:59:15 PM 39.7253 -104.6311 313° West  Level FlightAware Approximate
Thu 10:00:15 PM 39.6918 -104.4910 305° West  Level FlightAware Approximate
Thu 10:01:24 PM 39.8833 -104.8500 189° South 260 299 10,800  Level Denver TRACON
Thu 10:02:24 PM 39.8000 -104.8667 171° South 305 351 12,900 2,350 Climbing Denver TRACON
Thu 10:03:24 PM 39.7167 -104.8500 163° South 291 335 15,500 2,050 Climbing Denver TRACON
Thu 10:04:24 PM 39.6333 -104.8167 178° South 310 357 17,000 1,463 Climbing Denver TRACON
Thu 10:06:45 PM 39.4294 -104.8092 177° South 334 384 20,400 1,515 Climbing Denver Center
Thu 10:07:46 PM 39.3333 -104.8033 171° South 334 384 22,100 1,388 Climbing Denver Center
Thu 10:08:46 PM 39.2372 -104.7842 161° South 333 383 23,200 1,050 Climbing Denver Center
Thu 10:09:46 PM 39.1450 -104.7436 154° Southeast 347 399 24,200 1,000 Climbing Denver Center
Thu 10:10:46 PM 39.0503 -104.6844 156° South 359 413 25,200 1,000 Climbing Denver Center
Thu 10:11:46 PM 38.9556 -104.6308 163° South 366 421 26,200 1,000 Climbing Denver Center
Thu 10:12:46 PM 38.8547 -104.5908 146° Southeast 372 428 27,200 1,000 Climbing Denver Center
Thu 10:13:46 PM 38.7681 -104.5161 130° Southeast 372 428 28,200 1,050 Climbing Denver Center
Thu 10:14:46 PM 38.6972 -104.4089 131° Southeast 384 442 29,300 1,050 Climbing Denver Center
Thu 10:15:46 PM 38.6267 -104.3047 130° Southeast 391 450 30,300 1,000 Climbing Denver Center
Thu 10:16:46 PM 38.5578 -104.2006 130° Southeast 391 450 31,300 750 Climbing Denver Center
Thu 10:17:46 PM 38.4978 -104.1097 130° Southeast 375 432 31,800 450 Climbing Denver Center
Thu 10:18:46 PM 38.4244 -103.9981 132° Southeast 375 432 32,200 250 Climbing Denver Center
Thu 10:19:46 PM 38.3514 -103.8947 130° Southeast 380 437 32,300 300 Climbing Denver Center
Thu 10:20:46 PM 38.2844 -103.7942 131° Southeast 400 460 32,800 350 Climbing Denver Center
Thu 10:21:46 PM 38.2108 -103.6858 121° Southeast 405 466 33,000 100 Climbing Denver Center
Thu 10:22:46 PM 38.1428 -103.5433 86° East 419 482 33,000  Level Denver Center
Thu 10:23:46 PM 38.1508 -103.3794 81° East 438 504 33,000  Level Denver Center
Thu 10:24:46 PM 38.1711 -103.2122 71° East 475 547 33,000  Level Denver Center
Thu 10:25:46 PM 38.2164 -103.0461 69° East 498 573 33,000  Level Denver Center
Thu 10:26:46 PM 38.2636 -102.8853 68° East 498 573 33,000  Level Denver Center
Thu 10:27:46 PM 38.3147 -102.7211 70° East 493 567 33,000  Level Denver Center
Thu 10:28:46 PM 38.3575 -102.5733 68° East 493 567 33,000  Level Denver Center
Thu 10:29:46 PM 38.4158 -102.3925 69° East 500 575 33,000  Level Denver Center
Thu 10:30:46 PM 38.4642 -102.2306 70° East 495 570 33,000  Level Denver Center
Thu 10:31:46 PM 38.5122 -102.0658 69° East 495 570 33,000  Level Denver Center
Thu 10:32:46 PM 38.5583 -101.9142 69° East 500 575 33,000  Level Denver Center
Thu 10:33:46 PM 38.6117 -101.7381 69° East 487 560 33,000  Level Denver Center
Thu 10:34:46 PM 38.6592 -101.5781 69° East 488 562 33,000  Level Denver Center
Thu 10:35:46 PM 38.7083 -101.4147 70° East 488 562 33,000  Level Denver Center
Thu 10:36:46 PM 38.7497 -101.2653 69° East 488 562 33,000  Level Denver Center
Thu 10:37:46 PM 38.8036 -101.0800 69° East 488 562 33,000  Level Denver Center
Thu 10:38:45 PM 38.8522 -100.9189 70° East 488 562 33,000  Level Denver Center
Thu 10:39:45 PM 38.8983 -100.7553 69° East 488 562 33,000  Level Denver Center
Thu 10:40:45 PM 38.9411 -100.6100 69° East 488 562 33,000  Level Denver Center
Thu 10:41:46 PM 38.9892 -100.4483 71° East 483 556 33,000  Level Denver Center
Thu 10:42:46 PM 39.0411 -100.2486 70° East 509 586 33,000  Level Denver Center
Thu 10:43:46 PM 39.0883 -100.0836 70° East 495 570 33,000  Level Denver Center
Thu 10:44:46 PM 39.1283 -99.9436 70° East 471 542 33,000  Level Denver Center
Thu 10:45:46 PM 39.1803 -99.7617 71° East 479 551 33,000  Level Denver Center
Thu 10:46:46 PM 39.2264 -99.5881 71° East 498 573 33,000  Level Denver Center
Thu 10:48:03 PM 39.2842 -99.3733 71° East 506 582 33,000  Level Kansas City Center
Thu 10:50:26 PM 39.3867 -98.9758 70° East 492 566 33,000  Level Minneapolis Center
Thu 10:51:26 PM 39.4300 -98.8189 71° East 487 560 33,000  Level Minneapolis Center
Thu 10:52:26 PM 39.4756 -98.6483 71° East 482 555 33,000  Level Minneapolis Center
Thu 10:53:26 PM 39.5189 -98.4853 72° East 482 555 33,000  Level Minneapolis Center
Thu 10:54:26 PM 39.5619 -98.3167 70° East 482 555 33,000  Level Minneapolis Center
Thu 10:55:26 PM 39.6067 -98.1533 55° Northeast 482 555 33,000  Level Minneapolis Center
Thu 10:56:26 PM 39.6856 -98.0086 37° Northeast 475 547 33,000  Level Minneapolis Center
Thu 10:57:26 PM 39.7919 -97.9028 37° Northeast 473 544 33,000  Level Minneapolis Center
Thu 10:58:26 PM 39.8958 -97.7994 37° Northeast 468 539 33,000  Level Minneapolis Center
Thu 10:59:27 PM 39.9997 -97.6956 38° Northeast 468 539 33,000  Level Minneapolis Center
Thu 11:00:26 PM 40.1039 -97.5889 38° Northeast 468 539 33,000 101 Level Minneapolis Center
Thu 11:01:26 PM 40.2097 -97.4817 37° Northeast 474 545 33,200 347 Climbing Minneapolis Center
Thu 11:02:27 PM 40.3114 -97.3794 38° Northeast 474 545 33,700 450 Climbing Minneapolis Center
Thu 11:03:26 PM 40.3978 -97.2897 37° Northeast 459 528 34,100 454 Climbing Minneapolis Center
Thu 11:04:26 PM 40.5011 -97.1869 38° Northeast 454 522 34,600 500 Climbing Minneapolis Center
Thu 11:05:26 PM 40.6003 -97.0864 40° Northeast 454 522 35,100 500 Climbing Minneapolis Center
Thu 11:06:26 PM 40.6975 -96.9800 43° Northeast 454 522 35,600 550 Climbing Minneapolis Center
Thu 11:07:26 PM 40.7883 -96.8672 67° East 448 516 36,200 300 Climbing Minneapolis Center
Thu 11:08:26 PM 40.8344 -96.7219 71° East 434 499 36,200 50 Level Minneapolis Center
Thu 11:09:26 PM 40.8744 -96.5650 71° East 429 494 36,300 50 Climbing Minneapolis Center
Thu 11:10:26 PM 40.9142 -96.4081 70° East 442 509 36,300 50 Level Minneapolis Center
Thu 11:11:26 PM 40.9581 -96.2456 71° East 453 521 36,400 150 Climbing Minneapolis Center
Thu 11:12:26 PM 40.9994 -96.0853 71° East 458 527 36,600 200 Climbing Minneapolis Center
Thu 11:13:26 PM 41.0428 -95.9194 72° East 458 527 36,800 200 Climbing Minneapolis Center
Thu 11:14:26 PM 41.0839 -95.7533 70° East 464 534 37,000 100 Climbing Minneapolis Center
Thu 11:15:26 PM 41.1292 -95.5844 72° East 477 549 37,000  Level Minneapolis Center
Thu 11:16:27 PM 41.1719 -95.4097 71° East 482 555 37,000  Level Minneapolis Center
Thu 11:17:26 PM 41.2164 -95.2406 71° East 482 555 37,000  Level Minneapolis Center
Thu 11:18:26 PM 41.2608 -95.0681 72° East 482 555 37,000  Level Minneapolis Center
Thu 11:19:26 PM 41.3028 -94.8953 72° East 482 555 37,000  Level Minneapolis Center
Thu 11:20:26 PM 41.3467 -94.7197 73° East 482 555 37,000  Level Minneapolis Center
Thu 11:21:26 PM 41.3881 -94.5436 72° East 487 560 37,000  Level Minneapolis Center
Thu 11:22:26 PM 41.4311 -94.3703 71° East 492 566 37,000  Level Minneapolis Center
Thu 11:23:26 PM 41.4742 -94.1994 72° East 492 566 37,000  Level Minneapolis Center
Thu 11:25:36 PM 41.5628 -93.8242 73° East 513 590 37,000  Level Chicago Center
Thu 11:26:36 PM 41.6028 -93.6492 72° East 507 583 37,000  Level Chicago Center
Thu 11:27:36 PM 41.6447 -93.4739 72° East 494 568 37,000  Level Chicago Center
Thu 11:28:36 PM 41.6864 -93.3014 73° East 489 563 37,000  Level Chicago Center
Thu 11:29:36 PM 41.7258 -93.1228 76° East 490 564 37,000  Level Chicago Center
Thu 11:30:36 PM 41.7583 -92.9522 73° East 490 564 37,000  Level Chicago Center
Thu 11:31:36 PM 41.7969 -92.7789 73° East 485 558 37,000  Level Chicago Center
Thu 11:32:36 PM 41.8353 -92.6081 72° East 485 558 37,000  Level Chicago Center
Thu 11:33:36 PM 41.8756 -92.4372 73° East 485 558 37,000  Level Chicago Center
Thu 11:34:36 PM 41.9133 -92.2686 74° East 479 551 37,000  Level Chicago Center
Thu 11:35:36 PM 41.9508 -92.0972 74° East 469 540 37,000  Level Chicago Center
Thu 11:36:36 PM 41.9881 -91.9256 74° East 469 540 37,000  Level Chicago Center
Thu 11:37:37 PM 42.0231 -91.7592 74° East 469 540 37,000  Level Chicago Center
Thu 11:38:36 PM 42.0622 -91.5761 73° East 469 540 37,000  Level Chicago Center
Thu 11:39:36 PM 42.0986 -91.4122 73° East 464 534 37,000  Level Chicago Center
Thu 11:40:36 PM 42.1347 -91.2483 75° East 464 534 37,000  Level Chicago Center
Thu 11:41:36 PM 42.1686 -91.0811 74° East 459 528 37,000  Level Chicago Center
Thu 11:42:36 PM 42.2022 -90.9194 75° East 454 522 37,000  Level Chicago Center
Thu 11:43:36 PM 42.2356 -90.7547 75° East 454 522 37,000 -496 Level Chicago Center
Thu 11:44:37 PM 42.2689 -90.5900 74° East 454 522 36,000 -1,000 Descending Chicago Center
Thu 11:45:36 PM 42.3039 -90.4194 76° East 454 522 35,000 -1,008 Descending Chicago Center
Thu 11:46:36 PM 42.3344 -90.2514 73° East 454 522 34,000 -1,000 Descending Chicago Center
Thu 11:47:36 PM 42.3711 -90.0889 75° East 468 539 33,000 -1,000 Descending Chicago Center
Thu 11:48:36 PM 42.4075 -89.9011 77° East 473 544 32,000 -1,400 Descending Chicago Center
Thu 11:49:36 PM 42.4375 -89.7242 75° East 473 544 30,200 -2,150 Descending Chicago Center
Thu 11:50:36 PM 42.4711 -89.5581 75° East 467 537 27,700 -2,450 Descending Chicago Center
Thu 11:51:36 PM 42.5025 -89.3978 77° East 448 516 25,300 -2,400 Descending Chicago Center
Thu 11:52:36 PM 42.5297 -89.2428 75° East 434 499 22,900 -2,400 Descending Chicago Center
Thu 11:53:36 PM 42.5586 -89.0989 76° East 405 466 20,500 -2,200 Descending Chicago Center
Thu 11:54:36 PM 42.5833 -88.9664 76° East 376 433 18,500 -1,900 Descending Chicago Center
Thu 11:55:36 PM 42.6078 -88.8364 75° East 358 412 16,700 -1,900 Descending Chicago Center
Thu 11:56:36 PM 42.6322 -88.7092 76° East 348 400 14,700 -1,750 Descending Chicago Center
Thu 11:57:36 PM 42.6544 -88.5878 78° East 335 386 13,200 -1,500 Descending Chicago Center
Thu 11:58:36 PM 42.6722 -88.4717 74° East 325 374 11,700 -1,450 Descending Chicago Center
Thu 11:59:36 PM 42.6942 -88.3639 67° East 313 360 10,300 -1,500 Descending Chicago Center
Fri 12:00:36 AM 42.7228 -88.2731 66° East 280 322 8,700 -1,500 Descending Chicago Center
Fri 12:01:36 AM 42.7511 -88.1850 65° Northeast 258 297 7,300 -1,450 Descending Chicago Center
Fri 12:02:36 AM 42.7792 -88.1025 68° East 245 282 5,800 -1,320 Descending Chicago Center
Fri 12:04:56 AM 42.8333 -87.9167 14° North 210 242 2,900 -1,164 Descending KMKE
Fri 12:05:57 AM 42.8833 -87.9000 14° North 161 185 1,900 -984 Descending KMKE

Login

Don't have an account? Register now (free) for customized features, flight alerts, and more!